Hackettstown, NJ

10:43 AM EST on March 02, 2015 (GMT -0500)
Andover | Change Station
CLOSE
Current Station
Airport
Location: Andover,
Elevation: 581 ft
Nearby Weather Stations

Elev 581 ft 41.01 °N, 74.74 °W | Updated 49 minutes ago

Overcast
Overcast
31 °F
Feels Like 20 °F
N
15
Wind Variable Wind from NNW
Gusts 26 mph

Today
High -- | Low -- °F
--% Chance of Precip.
Yesterday
High -- | Low -- °F
Precip. -- in
6:32 AM 5:51 PM
Waxing Gibbous, 92% visible
Pressure 30.18 in
Visibility -9999.0 miles
Clouds
Windchill 20 °F
Dew Point 17 °F
Humidity 57%
Rainfall 0.00 in
Snow Depth Not available.
UV Not available.
Pollen .80 out of 12
Air Quality Not available.
Flu Activity Not available.
METAR K12N 021454Z AUTO 34013G23KT 310V010 M01/M08 A3014 RMK AO1 SLP220 T10061083 53025

More Conditions Fewer Conditions

Pressure 30.18 in
Visibility -9999.0 miles
Clouds
Windchill 20 °F
Dew Point 17 °F
Humidity 57%
Rainfall 0.00 in
Snow Depth Not available.
UV Not available.
Pollen .80 out of 12
Air Quality Not available.
Flu Activity Not available.
METAR K12N 021454Z AUTO 34013G23KT 310V010 M01/M08 A3014 RMK AO1 SLP220 T10061083 53025

More Conditions Fewer Conditions

10-Day Weather Forecast

Almanac

Astronomy

Mar. 02, 2015 Rise Set
Actual Time
Civil Twilight
Nautical Twilight
Astronomical Twilight
Moon
Length of Visible Light
Length of Day
Tomorrow will be .
, % of the Moon is Illuminated

Today's Extremes

State Highs State Lows

Community

WunderPhotos

Upload Photos

1,801,823 photos uploaded!

WunderBlogs® & News

Nearby

Air Quality

  Air Quality AQ Index Pollutant
Not available.

Snow Depth

Station Depth Elevation

Earthquake Activity

City Distance Mag. Time & Date
Minimum magnitude displayed is 2.5.

Coastal Water Temperatures

Place Temperature

Nearby Weather Stations